sensor_id;sensor_type;location;lat;lon;timestamp;pressure;altitude;pressure_sealevel;temperature;humidity
9538;BME280;4807;48.024;11.726;2023-04-28T00:02:17;94951.56;;;6.72;81.19
9538;BME280;4807;48.024;11.726;2023-04-28T00:05:27;94952.88;;;6.68;81.22
9538;BME280;4807;48.024;11.726;2023-04-28T00:08:36;94946.13;;;6.66;80.92
9538;BME280;4807;48.024;11.726;2023-04-28T00:11:44;94944.13;;;6.68;81.24
9538;BME280;4807;48.024;11.726;2023-04-28T00:14:53;94946.78;;;6.68;80.62
9538;BME280;4807;48.024;11.726;2023-04-28T00:18:02;94943.16;;;6.83;80.38
9538;BME280;4807;48.024;11.726;2023-04-28T00:21:12;94939.41;;;6.78;81.13
9538;BME280;4807;48.024;11.726;2023-04-28T00:24:20;94933.72;;;6.89;80.23
9538;BME280;4807;48.024;11.726;2023-04-28T00:27:28;94930.03;;;6.90;80.85
9538;BME280;4807;48.024;11.726;2023-04-28T00:30:36;94927.41;;;6.90;80.73
9538;BME280;4807;48.024;11.726;2023-04-28T00:33:44;94932.69;;;6.90;80.32
9538;BME280;4807;48.024;11.726;2023-04-28T00:36:54;94929.69;;;6.93;79.78
9538;BME280;4807;48.024;11.726;2023-04-28T00:40:06;94926.41;;;6.91;80.70
9538;BME280;4807;48.024;11.726;2023-04-28T00:43:14;94925.41;;;6.92;80.26
9538;BME280;4807;48.024;11.726;2023-04-28T00:46:27;94908.13;;;6.81;80.85
9538;BME280;4807;48.024;11.726;2023-04-28T00:49:37;94911.66;;;6.74;80.49
9538;BME280;4807;48.024;11.726;2023-04-28T00:52:46;94905.31;;;6.83;80.54
9538;BME280;4807;48.024;11.726;2023-04-28T00:55:55;94914.03;;;6.69;81.22
9538;BME280;4807;48.024;11.726;2023-04-28T00:59:04;94907.75;;;6.70;80.97
9538;BME280;4807;48.024;11.726;2023-04-28T01:02:13;94909.22;;;6.72;81.30
9538;BME280;4807;48.024;11.726;2023-04-28T01:05:25;94906.19;;;6.75;80.88
9538;BME280;4807;48.024;11.726;2023-04-28T01:08:37;94908.66;;;6.77;80.59
9538;BME280;4807;48.024;11.726;2023-04-28T01:11:52;94901.44;;;6.71;81.30
9538;BME280;4807;48.024;11.726;2023-04-28T01:15:20;94893.72;;;6.84;80.69
9538;BME280;4807;48.024;11.726;2023-04-28T01:18:33;94896.59;;;6.97;80.34
9538;BME280;4807;48.024;11.726;2023-04-28T01:21:43;94892.66;;;7.08;80.24
9538;BME280;4807;48.024;11.726;2023-04-28T01:25:01;94887.38;;;7.08;79.84
9538;BME280;4807;48.024;11.726;2023-04-28T01:28:11;94889.00;;;7.09;80.37
9538;BME280;4807;48.024;11.726;2023-04-28T01:31:20;94880.47;;;7.21;79.65
9538;BME280;4807;48.024;11.726;2023-04-28T01:34:28;94885.19;;;7.26;79.48
9538;BME280;4807;48.024;11.726;2023-04-28T01:37:36;94881.72;;;7.25;79.59
9538;BME280;4807;48.024;11.726;2023-04-28T01:40:46;94870.13;;;7.26;78.91
9538;BME280;4807;48.024;11.726;2023-04-28T01:43:54;94866.47;;;7.27;79.54
9538;BME280;4807;48.024;11.726;2023-04-28T01:47:04;94875.06;;;7.30;79.06
9538;BME280;4807;48.024;11.726;2023-04-28T01:50:14;94875.59;;;7.25;79.70
9538;BME280;4807;48.024;11.726;2023-04-28T01:53:22;94868.66;;;7.24;79.68
9538;BME280;4807;48.024;11.726;2023-04-28T01:56:33;94871.41;;;7.31;79.91
9538;BME280;4807;48.024;11.726;2023-04-28T01:59:42;94878.00;;;7.35;79.37
9538;BME280;4807;48.024;11.726;2023-04-28T02:02:51;94868.78;;;7.45;78.81
9538;BME280;4807;48.024;11.726;2023-04-28T02:05:59;94875.91;;;7.45;78.88
9538;BME280;4807;48.024;11.726;2023-04-28T02:09:07;94878.44;;;7.53;78.66
9538;BME280;4807;48.024;11.726;2023-04-28T02:12:17;94877.59;;;7.67;78.71
9538;BME280;4807;48.024;11.726;2023-04-28T02:15:25;94866.66;;;7.70;78.13
9538;BME280;4807;48.024;11.726;2023-04-28T02:18:34;94872.38;;;7.74;77.81
9538;BME280;4807;48.024;11.726;2023-04-28T02:21:43;94874.09;;;7.81;77.68
9538;BME280;4807;48.024;11.726;2023-04-28T02:24:52;94865.69;;;7.92;77.75
9538;BME280;4807;48.024;11.726;2023-04-28T02:28:02;94870.34;;;7.90;77.13
9538;BME280;4807;48.024;11.726;2023-04-28T02:31:14;94883.69;;;7.82;78.08
9538;BME280;4807;48.024;11.726;2023-04-28T02:34:22;94883.94;;;7.87;77.74
9538;BME280;4807;48.024;11.726;2023-04-28T02:37:30;94885.25;;;7.91;78.37
9538;BME280;4807;48.024;11.726;2023-04-28T02:40:38;94887.78;;;7.99;77.75
9538;BME280;4807;48.024;11.726;2023-04-28T02:43:49;94889.44;;;8.00;78.15
9538;BME280;4807;48.024;11.726;2023-04-28T02:46:57;94877.72;;;8.10;77.85
9538;BME280;4807;48.024;11.726;2023-04-28T02:50:08;94882.72;;;8.04;78.29
9538;BME280;4807;48.024;11.726;2023-04-28T02:53:17;94869.94;;;8.08;78.15
9538;BME280;4807;48.024;11.726;2023-04-28T02:56:26;94868.94;;;8.09;78.42
9538;BME280;4807;48.024;11.726;2023-04-28T02:59:37;94855.38;;;8.19;78.06
9538;BME280;4807;48.024;11.726;2023-04-28T03:02:45;94847.78;;;8.16;78.12
9538;BME280;4807;48.024;11.726;2023-04-28T03:05:53;94859.16;;;8.10;79.09
9538;BME280;4807;48.024;11.726;2023-04-28T03:09:02;94853.56;;;8.04;78.36
9538;BME280;4807;48.024;11.726;2023-04-28T03:12:12;94852.31;;;8.00;78.95
9538;BME280;4807;48.024;11.726;2023-04-28T03:15:22;94861.53;;;8.04;78.97
9538;BME280;4807;48.024;11.726;2023-04-28T03:18:30;94850.56;;;8.08;79.41
9538;BME280;4807;48.024;11.726;2023-04-28T03:21:40;94840.19;;;8.13;78.96
9538;BME280;4807;48.024;11.726;2023-04-28T03:24:48;94849.97;;;8.12;79.99
9538;BME280;4807;48.024;11.726;2023-04-28T03:27:56;94832.28;;;8.19;78.94
9538;BME280;4807;48.024;11.726;2023-04-28T03:31:06;94841.34;;;8.25;78.42
9538;BME280;4807;48.024;11.726;2023-04-28T03:34:14;94833.47;;;8.31;78.90
9538;BME280;4807;48.024;11.726;2023-04-28T03:37:23;94830.66;;;8.33;79.00
9538;BME280;4807;48.024;11.726;2023-04-28T03:40:31;94846.25;;;8.28;79.16
9538;BME280;4807;48.024;11.726;2023-04-28T03:44:05;94837.19;;;8.37;79.23
9538;BME280;4807;48.024;11.726;2023-04-28T03:47:22;94826.41;;;8.38;79.49
9538;BME280;4807;48.024;11.726;2023-04-28T03:50:31;94822.56;;;8.41;79.00
9538;BME280;4807;48.024;11.726;2023-04-28T03:53:41;94818.03;;;8.35;79.55
9538;BME280;4807;48.024;11.726;2023-04-28T03:56:49;94820.72;;;8.41;79.34
9538;BME280;4807;48.024;11.726;2023-04-28T03:59:58;94827.28;;;8.46;79.02
9538;BME280;4807;48.024;11.726;2023-04-28T04:03:11;94821.97;;;8.46;78.91
9538;BME280;4807;48.024;11.726;2023-04-28T04:06:22;94832.91;;;8.57;78.23
9538;BME280;4807;48.024;11.726;2023-04-28T04:09:30;94843.38;;;8.65;78.26
9538;BME280;4807;48.024;11.726;2023-04-28T04:12:39;94843.88;;;8.54;79.05
9538;BME280;4807;48.024;11.726;2023-04-28T04:15:47;94838.84;;;8.38;79.76
9538;BME280;4807;48.024;11.726;2023-04-28T04:18:58;94823.44;;;8.48;79.42
9538;BME280;4807;48.024;11.726;2023-04-28T04:22:23;94831.25;;;8.56;79.24
9538;BME280;4807;48.024;11.726;2023-04-28T04:25:31;94840.72;;;8.65;78.89
9538;BME280;4807;48.024;11.726;2023-04-28T04:28:40;94832.25;;;8.55;79.29
9538;BME280;4807;48.024;11.726;2023-04-28T04:31:49;94839.63;;;8.60;79.77
9538;BME280;4807;48.024;11.726;2023-04-28T04:34:59;94836.38;;;8.58;80.09
9538;BME280;4807;48.024;11.726;2023-04-28T04:38:08;94840.31;;;8.68;79.66
9538;BME280;4807;48.024;11.726;2023-04-28T04:41:17;94822.38;;;8.70;79.20
9538;BME280;4807;48.024;11.726;2023-04-28T04:44:27;94829.34;;;8.71;79.38
9538;BME280;4807;48.024;11.726;2023-04-28T04:47:36;94815.44;;;8.69;79.52
9538;BME280;4807;48.024;11.726;2023-04-28T04:50:46;94823.97;;;8.65;80.22
9538;BME280;4807;48.024;11.726;2023-04-28T04:53:55;94831.34;;;8.69;80.48
9538;BME280;4807;48.024;11.726;2023-04-28T04:57:04;94836.94;;;8.74;80.64
9538;BME280;4807;48.024;11.726;2023-04-28T05:00:35;94829.84;;;8.82;80.04
9538;BME280;4807;48.024;11.726;2023-04-28T05:03:44;94820.13;;;8.95;79.74
9538;BME280;4807;48.024;11.726;2023-04-28T05:06:54;94819.16;;;9.03;78.88
9538;BME280;4807;48.024;11.726;2023-04-28T05:10:03;94822.91;;;8.87;79.54
9538;BME280;4807;48.024;11.726;2023-04-28T05:13:13;94820.47;;;8.58;80.93
9538;BME280;4807;48.024;11.726;2023-04-28T05:16:21;94825.72;;;8.51;80.94
9538;BME280;4807;48.024;11.726;2023-04-28T05:19:50;94835.03;;;8.68;79.93
9538;BME280;4807;48.024;11.726;2023-04-28T05:22:59;94833.53;;;8.59;80.18
9538;BME280;4807;48.024;11.726;2023-04-28T05:26:08;94831.06;;;8.86;79.15
9538;BME280;4807;48.024;11.726;2023-04-28T05:29:17;94837.88;;;8.95;79.33
9538;BME280;4807;48.024;11.726;2023-04-28T05:32:25;94832.75;;;8.93;79.63
9538;BME280;4807;48.024;11.726;2023-04-28T05:35:34;94843.50;;;9.06;78.81
9538;BME280;4807;48.024;11.726;2023-04-28T05:38:45;94844.53;;;9.12;78.21
9538;BME280;4807;48.024;11.726;2023-04-28T05:41:53;94848.03;;;9.12;77.73
9538;BME280;4807;48.024;11.726;2023-04-28T05:45:02;94856.63;;;9.14;78.41
9538;BME280;4807;48.024;11.726;2023-04-28T05:48:11;94866.09;;;8.96;78.81
9538;BME280;4807;48.024;11.726;2023-04-28T05:51:20;94873.75;;;9.12;78.11
9538;BME280;4807;48.024;11.726;2023-04-28T05:54:30;94851.38;;;9.28;77.47
9538;BME280;4807;48.024;11.726;2023-04-28T05:57:40;94849.38;;;9.30;77.77
9538;BME280;4807;48.024;11.726;2023-04-28T06:00:59;94852.25;;;9.35;77.51
9538;BME280;4807;48.024;11.726;2023-04-28T06:04:07;94851.69;;;9.46;76.35
9538;BME280;4807;48.024;11.726;2023-04-28T06:07:16;94856.59;;;9.49;76.55
9538;BME280;4807;48.024;11.726;2023-04-28T06:10:26;94854.03;;;9.62;76.70
9538;BME280;4807;48.024;11.726;2023-04-28T06:13:34;94876.50;;;9.60;76.48
9538;BME280;4807;48.024;11.726;2023-04-28T06:16:43;94876.91;;;9.56;77.22
9538;BME280;4807;48.024;11.726;2023-04-28T06:19:54;94878.19;;;9.67;77.49
9538;BME280;4807;48.024;11.726;2023-04-28T06:23:02;94875.09;;;9.64;77.42
9538;BME280;4807;48.024;11.726;2023-04-28T06:26:12;94870.66;;;9.71;77.69
9538;BME280;4807;48.024;11.726;2023-04-28T06:29:24;94874.19;;;9.84;77.99
9538;BME280;4807;48.024;11.726;2023-04-28T06:32:33;94861.97;;;10.03;78.00
9538;BME280;4807;48.024;11.726;2023-04-28T06:35:42;94865.50;;;10.17;77.74
9538;BME280;4807;48.024;11.726;2023-04-28T06:38:50;94859.03;;;10.32;76.51
9538;BME280;4807;48.024;11.726;2023-04-28T06:42:00;94854.75;;;10.51;76.77
9538;BME280;4807;48.024;11.726;2023-04-28T06:45:11;94866.28;;;10.78;76.28
9538;BME280;4807;48.024;11.726;2023-04-28T06:48:19;94855.59;;;11.04;75.74
9538;BME280;4807;48.024;11.726;2023-04-28T06:51:28;94856.00;;;11.21;75.40
9538;BME280;4807;48.024;11.726;2023-04-28T06:54:36;94851.50;;;10.95;76.66
9538;BME280;4807;48.024;11.726;2023-04-28T06:57:50;94850.06;;;11.06;76.48
9538;BME280;4807;48.024;11.726;2023-04-28T07:00:58;94834.88;;;11.13;76.37
9538;BME280;4807;48.024;11.726;2023-04-28T07:04:07;94836.13;;;11.24;75.54
9538;BME280;4807;48.024;11.726;2023-04-28T07:07:15;94822.94;;;11.48;75.54
9538;BME280;4807;48.024;11.726;2023-04-28T07:10:23;94819.41;;;11.61;75.41
9538;BME280;4807;48.024;11.726;2023-04-28T07:13:33;94822.28;;;11.66;75.56
9538;BME280;4807;48.024;11.726;2023-04-28T07:16:42;94815.91;;;12.18;75.06
9538;BME280;4807;48.024;11.726;2023-04-28T07:19:50;94822.00;;;12.32;74.03
9538;BME280;4807;48.024;11.726;2023-04-28T07:22:59;94825.00;;;12.42;74.46
9538;BME280;4807;48.024;11.726;2023-04-28T07:26:07;94809.88;;;12.61;74.55
9538;BME280;4807;48.024;11.726;2023-04-28T07:29:17;94827.94;;;12.66;74.50
9538;BME280;4807;48.024;11.726;2023-04-28T07:32:26;94817.69;;;12.31;75.18
9538;BME280;4807;48.024;11.726;2023-04-28T07:35:34;94813.09;;;12.07;76.38
9538;BME280;4807;48.024;11.726;2023-04-28T07:38:42;94802.47;;;11.94;75.68
9538;BME280;4807;48.024;11.726;2023-04-28T07:41:51;94811.44;;;11.55;77.66
9538;BME280;4807;48.024;11.726;2023-04-28T07:45:02;94799.88;;;11.80;76.87
9538;BME280;4807;48.024;11.726;2023-04-28T07:48:10;94805.38;;;11.85;76.05
9538;BME280;4807;48.024;11.726;2023-04-28T07:51:19;94807.47;;;11.83;76.36
9538;BME280;4807;48.024;11.726;2023-04-28T07:54:27;94807.13;;;12.11;75.98
9538;BME280;4807;48.024;11.726;2023-04-28T07:57:35;94800.78;;;12.06;75.77
9538;BME280;4807;48.024;11.726;2023-04-28T08:00:45;94803.63;;;12.11;75.99
9538;BME280;4807;48.024;11.726;2023-04-28T08:03:53;94814.84;;;12.26;75.67
9538;BME280;4807;48.024;11.726;2023-04-28T08:07:02;94816.22;;;12.35;74.79
9538;BME280;4807;48.024;11.726;2023-04-28T08:10:10;94813.28;;;12.43;73.84
9538;BME280;4807;48.024;11.726;2023-04-28T08:13:19;94818.47;;;12.38;75.17
9538;BME280;4807;48.024;11.726;2023-04-28T08:16:30;94807.09;;;12.49;74.64
9538;BME280;4807;48.024;11.726;2023-04-28T08:19:38;94814.94;;;12.44;74.62
9538;BME280;4807;48.024;11.726;2023-04-28T08:22:47;94817.03;;;12.36;74.91
9538;BME280;4807;48.024;11.726;2023-04-28T08:25:55;94816.09;;;12.55;74.24
9538;BME280;4807;48.024;11.726;2023-04-28T08:29:04;94819.59;;;12.17;74.98
9538;BME280;4807;48.024;11.726;2023-04-28T08:32:14;94820.38;;;12.31;74.74
9538;BME280;4807;48.024;11.726;2023-04-28T08:35:22;94822.84;;;12.26;75.61
9538;BME280;4807;48.024;11.726;2023-04-28T08:38:30;94817.38;;;12.14;76.38
9538;BME280;4807;48.024;11.726;2023-04-28T08:41:38;94812.63;;;12.23;76.25
9538;BME280;4807;48.024;11.726;2023-04-28T08:44:50;94807.84;;;12.32;76.63
9538;BME280;4807;48.024;11.726;2023-04-28T08:48:04;94802.19;;;12.46;76.64
9538;BME280;4807;48.024;11.726;2023-04-28T08:51:16;94797.56;;;12.60;75.68
9538;BME280;4807;48.024;11.726;2023-04-28T08:54:35;94793.13;;;12.79;75.06
9538;BME280;4807;48.024;11.726;2023-04-28T08:57:49;94789.72;;;12.90;74.50
9538;BME280;4807;48.024;11.726;2023-04-28T09:00:58;94798.59;;;12.84;74.51
9538;BME280;4807;48.024;11.726;2023-04-28T09:04:10;94793.44;;;12.89;75.16
9538;BME280;4807;48.024;11.726;2023-04-28T09:07:21;94791.56;;;12.89;75.38
9538;BME280;4807;48.024;11.726;2023-04-28T09:10:29;94790.31;;;12.92;75.65
9538;BME280;4807;48.024;11.726;2023-04-28T09:13:39;94787.03;;;12.90;75.83
9538;BME280;4807;48.024;11.726;2023-04-28T09:16:48;94787.88;;;12.90;75.99
9538;BME280;4807;48.024;11.726;2023-04-28T09:20:00;94787.59;;;12.98;75.97
9538;BME280;4807;48.024;11.726;2023-04-28T09:23:15;94776.78;;;13.12;75.41
9538;BME280;4807;48.024;11.726;2023-04-28T09:26:24;94779.75;;;13.04;75.57
9538;BME280;4807;48.024;11.726;2023-04-28T09:29:33;94777.78;;;13.17;76.15
9538;BME280;4807;48.024;11.726;2023-04-28T09:32:42;94774.28;;;12.92;75.81
9538;BME280;4807;48.024;11.726;2023-04-28T09:35:53;94782.09;;;12.93;76.56
9538;BME280;4807;48.024;11.726;2023-04-28T09:39:01;94778.47;;;12.81;77.28
9538;BME280;4807;48.024;11.726;2023-04-28T09:42:29;94777.63;;;12.87;77.62
9538;BME280;4807;48.024;11.726;2023-04-28T09:45:39;94780.94;;;12.83;78.18
9538;BME280;4807;48.024;11.726;2023-04-28T09:48:59;94777.44;;;12.82;78.35
9538;BME280;4807;48.024;11.726;2023-04-28T09:52:13;94778.06;;;12.84;78.41
9538;BME280;4807;48.024;11.726;2023-04-28T09:55:23;94779.16;;;12.77;78.75
9538;BME280;4807;48.024;11.726;2023-04-28T09:58:38;94767.75;;;12.88;78.67
9538;BME280;4807;48.024;11.726;2023-04-28T10:01:50;94775.38;;;12.84;79.14
9538;BME280;4807;48.024;11.726;2023-04-28T10:05:00;94765.72;;;12.83;78.32
9538;BME280;4807;48.024;11.726;2023-04-28T10:08:12;94765.09;;;12.88;77.91
9538;BME280;4807;48.024;11.726;2023-04-28T10:11:21;94755.03;;;12.83;78.04
9538;BME280;4807;48.024;11.726;2023-04-28T10:14:32;94750.53;;;12.84;77.76
9538;BME280;4807;48.024;11.726;2023-04-28T10:17:40;94757.13;;;12.56;78.76
9538;BME280;4807;48.024;11.726;2023-04-28T10:20:55;94757.16;;;12.75;77.46
9538;BME280;4807;48.024;11.726;2023-04-28T10:24:14;94758.47;;;13.15;76.08
9538;BME280;4807;48.024;11.726;2023-04-28T10:27:29;94757.34;;;12.80;77.19
9538;BME280;4807;48.024;11.726;2023-04-28T10:30:38;94758.59;;;12.52;77.96
9538;BME280;4807;48.024;11.726;2023-04-28T10:33:46;94760.06;;;12.48;77.85
9538;BME280;4807;48.024;11.726;2023-04-28T10:36:55;94758.44;;;12.16;80.11
9538;BME280;4807;48.024;11.726;2023-04-28T10:40:34;94751.41;;;12.53;79.70
9538;BME280;4807;48.024;11.726;2023-04-28T10:43:42;94756.13;;;12.51;79.17
9538;BME280;4807;48.024;11.726;2023-04-28T10:47:00;94748.44;;;12.36;79.25
9538;BME280;4807;48.024;11.726;2023-04-28T10:50:09;94747.78;;;12.41;79.91
9538;BME280;4807;48.024;11.726;2023-04-28T10:53:18;94749.00;;;12.13;80.67
9538;BME280;4807;48.024;11.726;2023-04-28T10:56:29;94746.81;;;12.35;79.33
9538;BME280;4807;48.024;11.726;2023-04-28T10:59:37;94753.94;;;12.41;79.62
9538;BME280;4807;48.024;11.726;2023-04-28T11:02:46;94751.19;;;12.54;78.86
9538;BME280;4807;48.024;11.726;2023-04-28T11:06:17;94754.00;;;12.59;78.93
9538;BME280;4807;48.024;11.726;2023-04-28T11:09:48;94743.94;;;12.61;78.60
9538;BME280;4807;48.024;11.726;2023-04-28T11:13:30;94743.25;;;12.91;77.55
9538;BME280;4807;48.024;11.726;2023-04-28T11:16:49;94748.31;;;12.99;77.65
9538;BME280;4807;48.024;11.726;2023-04-28T11:19:59;94745.56;;;12.63;79.35
9538;BME280;4807;48.024;11.726;2023-04-28T11:23:09;94747.25;;;12.82;78.74
9538;BME280;4807;48.024;11.726;2023-04-28T11:26:18;94762.38;;;12.70;78.96
9538;BME280;4807;48.024;11.726;2023-04-28T11:29:33;94761.34;;;12.71;78.76
9538;BME280;4807;48.024;11.726;2023-04-28T11:32:42;94747.91;;;12.52;79.39
9538;BME280;4807;48.024;11.726;2023-04-28T11:35:50;94750.09;;;12.37;79.61
9538;BME280;4807;48.024;11.726;2023-04-28T11:38:59;94750.44;;;12.41;80.12
9538;BME280;4807;48.024;11.726;2023-04-28T11:42:09;94746.53;;;12.43;80.53
9538;BME280;4807;48.024;11.726;2023-04-28T11:45:19;94758.47;;;12.66;80.13
9538;BME280;4807;48.024;11.726;2023-04-28T11:48:27;94736.13;;;12.85;79.30
9538;BME280;4807;48.024;11.726;2023-04-28T11:51:37;94730.81;;;13.03;78.67
9538;BME280;4807;48.024;11.726;2023-04-28T11:54:54;94724.41;;;13.29;78.66
9538;BME280;4807;48.024;11.726;2023-04-28T11:58:19;94729.97;;;13.27;78.00
9538;BME280;4807;48.024;11.726;2023-04-28T12:01:34;94727.75;;;13.91;75.47
9538;BME280;4807;48.024;11.726;2023-04-28T12:04:44;94732.06;;;13.62;76.47
9538;BME280;4807;48.024;11.726;2023-04-28T12:07:52;94730.00;;;14.05;74.80
9538;BME280;4807;48.024;11.726;2023-04-28T12:11:07;94735.97;;;14.07;75.77
9538;BME280;4807;48.024;11.726;2023-04-28T12:14:16;94742.88;;;13.85;74.40
9538;BME280;4807;48.024;11.726;2023-04-28T12:17:28;94735.59;;;13.74;75.90
9538;BME280;4807;48.024;11.726;2023-04-28T12:20:38;94736.50;;;13.68;76.93
9538;BME280;4807;48.024;11.726;2023-04-28T12:23:47;94738.31;;;13.86;76.18
9538;BME280;4807;48.024;11.726;2023-04-28T12:27:14;94737.91;;;14.00;75.30
9538;BME280;4807;48.024;11.726;2023-04-28T12:30:27;94749.09;;;13.79;75.81
9538;BME280;4807;48.024;11.726;2023-04-28T12:33:37;94750.47;;;13.70;75.51
9538;BME280;4807;48.024;11.726;2023-04-28T12:36:46;94744.38;;;13.45;76.18
9538;BME280;4807;48.024;11.726;2023-04-28T12:39:55;94753.00;;;13.28;77.84
9538;BME280;4807;48.024;11.726;2023-04-28T12:43:03;94757.53;;;13.28;77.22
9538;BME280;4807;48.024;11.726;2023-04-28T12:46:11;94759.81;;;13.24;77.63
9538;BME280;4807;48.024;11.726;2023-04-28T12:49:23;94755.97;;;13.20;77.88
9538;BME280;4807;48.024;11.726;2023-04-28T12:52:31;94756.53;;;13.22;78.34
9538;BME280;4807;48.024;11.726;2023-04-28T12:55:41;94755.44;;;13.48;77.26
9538;BME280;4807;48.024;11.726;2023-04-28T12:58:50;94761.19;;;13.52;77.29
9538;BME280;4807;48.024;11.726;2023-04-28T13:01:58;94753.59;;;13.49;77.02
9538;BME280;4807;48.024;11.726;2023-04-28T13:05:08;94759.16;;;13.65;76.48
9538;BME280;4807;48.024;11.726;2023-04-28T13:08:17;94760.69;;;13.73;76.18
9538;BME280;4807;48.024;11.726;2023-04-28T13:11:25;94757.69;;;13.69;77.16
9538;BME280;4807;48.024;11.726;2023-04-28T13:14:34;94755.34;;;13.73;76.58
9538;BME280;4807;48.024;11.726;2023-04-28T13:17:42;94748.34;;;13.90;76.91
9538;BME280;4807;48.024;11.726;2023-04-28T13:20:53;94748.66;;;13.82;76.45
9538;BME280;4807;48.024;11.726;2023-04-28T13:24:02;94756.50;;;13.95;76.81
9538;BME280;4807;48.024;11.726;2023-04-28T13:27:11;94749.78;;;14.04;76.89
9538;BME280;4807;48.024;11.726;2023-04-28T13:30:19;94745.72;;;14.73;74.68
9538;BME280;4807;48.024;11.726;2023-04-28T13:33:28;94745.13;;;15.18;73.24
9538;BME280;4807;48.024;11.726;2023-04-28T13:36:38;94741.72;;;15.34;71.61
9538;BME280;4807;48.024;11.726;2023-04-28T13:39:46;94750.72;;;15.40;70.80
9538;BME280;4807;48.024;11.726;2023-04-28T13:42:55;94733.13;;;14.85;73.46
9538;BME280;4807;48.024;11.726;2023-04-28T13:46:03;94726.13;;;14.84;72.83
9538;BME280;4807;48.024;11.726;2023-04-28T13:49:14;94727.19;;;14.72;72.55
9538;BME280;4807;48.024;11.726;2023-04-28T13:52:26;94729.97;;;14.77;74.12
9538;BME280;4807;48.024;11.726;2023-04-28T13:55:34;94734.06;;;15.03;73.83
9538;BME280;4807;48.024;11.726;2023-04-28T13:58:43;94726.09;;;15.43;72.26
9538;BME280;4807;48.024;11.726;2023-04-28T14:01:51;94732.41;;;15.25;72.89
9538;BME280;4807;48.024;11.726;2023-04-28T14:05:00;94730.56;;;15.14;72.33
9538;BME280;4807;48.024;11.726;2023-04-28T14:08:09;94722.03;;;15.17;73.13
9538;BME280;4807;48.024;11.726;2023-04-28T14:11:18;94729.38;;;15.56;71.80
9538;BME280;4807;48.024;11.726;2023-04-28T14:14:26;94723.66;;;15.64;70.79
9538;BME280;4807;48.024;11.726;2023-04-28T14:17:35;94718.41;;;15.46;71.28
9538;BME280;4807;48.024;11.726;2023-04-28T14:20:44;94722.41;;;15.32;70.91
9538;BME280;4807;48.024;11.726;2023-04-28T14:23:54;94713.88;;;15.00;72.79
9538;BME280;4807;48.024;11.726;2023-04-28T14:27:03;94729.50;;;15.03;72.43
9538;BME280;4807;48.024;11.726;2023-04-28T14:30:11;94717.03;;;14.62;74.20
9538;BME280;4807;48.024;11.726;2023-04-28T14:33:19;94709.53;;;14.41;74.57
9538;BME280;4807;48.024;11.726;2023-04-28T14:36:28;94711.22;;;14.35;75.48
9538;BME280;4807;48.024;11.726;2023-04-28T14:39:38;94699.44;;;14.43;76.12
9538;BME280;4807;48.024;11.726;2023-04-28T14:42:47;94703.97;;;14.42;75.88
9538;BME280;4807;48.024;11.726;2023-04-28T14:45:55;94701.34;;;14.36;76.71
9538;BME280;4807;48.024;11.726;2023-04-28T14:49:04;94693.00;;;14.44;76.33
9538;BME280;4807;48.024;11.726;2023-04-28T14:52:14;94700.78;;;14.34;76.08
9538;BME280;4807;48.024;11.726;2023-04-28T14:55:23;94701.19;;;14.19;75.46
9538;BME280;4807;48.024;11.726;2023-04-28T14:58:32;94694.28;;;14.11;76.20
9538;BME280;4807;48.024;11.726;2023-04-28T15:01:41;94690.78;;;13.99;77.02
9538;BME280;4807;48.024;11.726;2023-04-28T15:04:51;94690.19;;;13.97;76.62
9538;BME280;4807;48.024;11.726;2023-04-28T15:08:00;94695.09;;;14.00;77.28
9538;BME280;4807;48.024;11.726;2023-04-28T15:11:09;94685.69;;;14.09;77.64
9538;BME280;4807;48.024;11.726;2023-04-28T15:14:18;94685.88;;;13.96;77.24
9538;BME280;4807;48.024;11.726;2023-04-28T15:17:27;94690.97;;;13.86;77.86
9538;BME280;4807;48.024;11.726;2023-04-28T15:20:35;94703.72;;;13.54;79.01
9538;BME280;4807;48.024;11.726;2023-04-28T15:23:44;94707.16;;;13.61;79.10
9538;BME280;4807;48.024;11.726;2023-04-28T15:26:54;94704.09;;;13.58;79.31
9538;BME280;4807;48.024;11.726;2023-04-28T15:30:04;94703.16;;;13.52;79.83
9538;BME280;4807;48.024;11.726;2023-04-28T15:33:13;94700.47;;;13.52;80.03
9538;BME280;4807;48.024;11.726;2023-04-28T15:36:24;94699.38;;;13.42;80.73
9538;BME280;4807;48.024;11.726;2023-04-28T15:39:32;94694.00;;;13.42;81.30
9538;BME280;4807;48.024;11.726;2023-04-28T15:42:43;94701.28;;;13.53;81.20
9538;BME280;4807;48.024;11.726;2023-04-28T15:45:55;94694.53;;;13.50;81.63
9538;BME280;4807;48.024;11.726;2023-04-28T15:49:03;94688.13;;;13.51;81.82
9538;BME280;4807;48.024;11.726;2023-04-28T15:52:12;94695.75;;;13.66;80.81
9538;BME280;4807;48.024;11.726;2023-04-28T15:55:21;94696.06;;;13.76;80.89
9538;BME280;4807;48.024;11.726;2023-04-28T15:58:32;94688.19;;;13.63;81.33
9538;BME280;4807;48.024;11.726;2023-04-28T16:01:40;94689.97;;;13.99;80.44
9538;BME280;4807;48.024;11.726;2023-04-28T16:04:49;94687.66;;;14.02;80.02
9538;BME280;4807;48.024;11.726;2023-04-28T16:07:59;94682.47;;;13.89;80.08
9538;BME280;4807;48.024;11.726;2023-04-28T16:11:09;94685.50;;;13.63;81.18
9538;BME280;4807;48.024;11.726;2023-04-28T16:14:25;94671.00;;;13.70;80.96
9538;BME280;4807;48.024;11.726;2023-04-28T16:17:35;94677.22;;;13.53;81.80
9538;BME280;4807;48.024;11.726;2023-04-28T16:20:47;94663.25;;;13.32;82.88
9538;BME280;4807;48.024;11.726;2023-04-28T16:23:56;94660.16;;;13.35;82.72
9538;BME280;4807;48.024;11.726;2023-04-28T16:27:05;94650.50;;;13.34;82.90
9538;BME280;4807;48.024;11.726;2023-04-28T16:30:17;94649.47;;;13.17;83.74
9538;BME280;4807;48.024;11.726;2023-04-28T16:33:27;94652.56;;;13.14;84.02
9538;BME280;4807;48.024;11.726;2023-04-28T16:36:37;94646.78;;;13.17;84.04
9538;BME280;4807;48.024;11.726;2023-04-28T16:39:46;94646.78;;;13.17;84.24
9538;BME280;4807;48.024;11.726;2023-04-28T16:42:55;94655.25;;;13.14;84.38
9538;BME280;4807;48.024;11.726;2023-04-28T16:46:05;94655.25;;;13.14;84.66
9538;BME280;4807;48.024;11.726;2023-04-28T16:49:14;94658.34;;;13.11;84.64
9538;BME280;4807;48.024;11.726;2023-04-28T16:52:25;94654.13;;;13.04;84.72
9538;BME280;4807;48.024;11.726;2023-04-28T16:55:35;94652.94;;;12.99;84.34
9538;BME280;4807;48.024;11.726;2023-04-28T16:58:44;94654.34;;;13.02;85.13
9538;BME280;4807;48.024;11.726;2023-04-28T17:01:54;94657.03;;;13.02;85.40
9538;BME280;4807;48.024;11.726;2023-04-28T17:05:06;94672.38;;;12.88;85.14
9538;BME280;4807;48.024;11.726;2023-04-28T17:08:15;94671.81;;;13.05;84.92